sensor_id;sensor_type;location;lat;lon;timestamp;P1;durP1;ratioP1;P2;durP2;ratioP2
78718;SDS011;68046;53.334;9.538;2024-02-21T00:02:10;31.42;;;13.65;;
78718;SDS011;68046;53.334;9.538;2024-02-21T00:04:35;39.30;;;13.80;;
78718;SDS011;68046;53.334;9.538;2024-02-21T00:07:01;37.88;;;13.07;;
78718;SDS011;68046;53.334;9.538;2024-02-21T00:09:26;30.70;;;13.20;;
78718;SDS011;68046;53.334;9.538;2024-02-21T00:11:52;42.97;;;14.48;;
78718;SDS011;68046;53.334;9.538;2024-02-21T00:14:18;44.33;;;13.65;;
78718;SDS011;68046;53.334;9.538;2024-02-21T00:16:43;35.60;;;14.18;;
78718;SDS011;68046;53.334;9.538;2024-02-21T00:19:10;42.17;;;12.80;;
78718;SDS011;68046;53.334;9.538;2024-02-21T00:21:35;30.35;;;12.73;;
78718;SDS011;68046;53.334;9.538;2024-02-21T00:24:01;44.90;;;14.65;;
78718;SDS011;68046;53.334;9.538;2024-02-21T00:26:26;33.50;;;13.88;;
78718;SDS011;68046;53.334;9.538;2024-02-21T00:28:52;30.80;;;13.48;;
78718;SDS011;68046;53.334;9.538;2024-02-21T00:31:18;26.05;;;13.80;;
78718;SDS011;68046;53.334;9.538;2024-02-21T00:33:43;32.78;;;14.13;;
78718;SDS011;68046;53.334;9.538;2024-02-21T00:36:10;41.38;;;15.82;;
78718;SDS011;68046;53.334;9.538;2024-02-21T00:38:36;38.97;;;15.45;;
78718;SDS011;68046;53.334;9.538;2024-02-21T00:41:02;34.03;;;13.57;;
78718;SDS011;68046;53.334;9.538;2024-02-21T00:43:28;34.13;;;15.18;;
78718;SDS011;68046;53.334;9.538;2024-02-21T00:45:54;37.72;;;13.57;;
78718;SDS011;68046;53.334;9.538;2024-02-21T00:48:19;48.22;;;15.13;;
78718;SDS011;68046;53.334;9.538;2024-02-21T00:50:45;34.95;;;15.10;;
78718;SDS011;68046;53.334;9.538;2024-02-21T00:53:11;38.70;;;14.88;;
78718;SDS011;68046;53.334;9.538;2024-02-21T00:55:37;36.17;;;14.35;;
78718;SDS011;68046;53.334;9.538;2024-02-21T00:58:03;43.15;;;14.75;;
78718;SDS011;68046;53.334;9.538;2024-02-21T01:00:28;41.22;;;14.65;;
78718;SDS011;68046;53.334;9.538;2024-02-21T01:02:54;45.03;;;14.57;;
78718;SDS011;68046;53.334;9.538;2024-02-21T01:05:19;37.80;;;14.23;;
78718;SDS011;68046;53.334;9.538;2024-02-21T01:07:44;32.17;;;14.48;;
78718;SDS011;68046;53.334;9.538;2024-02-21T01:10:11;33.47;;;13.05;;
78718;SDS011;68046;53.334;9.538;2024-02-21T01:12:37;33.17;;;15.13;;
78718;SDS011;68046;53.334;9.538;2024-02-21T01:15:02;33.55;;;13.50;;
78718;SDS011;68046;53.334;9.538;2024-02-21T01:17:28;31.45;;;13.75;;
78718;SDS011;68046;53.334;9.538;2024-02-21T01:19:54;37.90;;;14.23;;
78718;SDS011;68046;53.334;9.538;2024-02-21T01:22:19;45.28;;;16.13;;
78718;SDS011;68046;53.334;9.538;2024-02-21T01:24:45;37.70;;;14.65;;
78718;SDS011;68046;53.334;9.538;2024-02-21T01:27:12;35.15;;;14.93;;
78718;SDS011;68046;53.334;9.538;2024-02-21T01:29:37;39.83;;;15.75;;
78718;SDS011;68046;53.334;9.538;2024-02-21T01:32:03;38.45;;;13.52;;
78718;SDS011;68046;53.334;9.538;2024-02-21T01:34:29;40.17;;;15.77;;
78718;SDS011;68046;53.334;9.538;2024-02-21T01:36:54;44.17;;;17.00;;
78718;SDS011;68046;53.334;9.538;2024-02-21T01:39:20;40.88;;;16.85;;
78718;SDS011;68046;53.334;9.538;2024-02-21T01:41:45;38.17;;;15.63;;
78718;SDS011;68046;53.334;9.538;2024-02-21T01:44:12;41.67;;;16.77;;
78718;SDS011;68046;53.334;9.538;2024-02-21T01:46:38;41.85;;;15.32;;
78718;SDS011;68046;53.334;9.538;2024-02-21T01:49:04;39.03;;;16.38;;
78718;SDS011;68046;53.334;9.538;2024-02-21T01:51:30;41.05;;;17.08;;
78718;SDS011;68046;53.334;9.538;2024-02-21T01:53:56;47.47;;;16.80;;
78718;SDS011;68046;53.334;9.538;2024-02-21T01:56:22;43.67;;;17.42;;
78718;SDS011;68046;53.334;9.538;2024-02-21T01:58:48;47.13;;;17.30;;
78718;SDS011;68046;53.334;9.538;2024-02-21T02:01:17;57.38;;;18.42;;
78718;SDS011;68046;53.334;9.538;2024-02-21T02:03:42;36.00;;;16.58;;
78718;SDS011;68046;53.334;9.538;2024-02-21T02:06:10;44.97;;;18.85;;
78718;SDS011;68046;53.334;9.538;2024-02-21T02:08:36;50.67;;;16.90;;
78718;SDS011;68046;53.334;9.538;2024-02-21T02:11:01;37.20;;;17.13;;
78718;SDS011;68046;53.334;9.538;2024-02-21T02:13:27;40.97;;;18.55;;
78718;SDS011;68046;53.334;9.538;2024-02-21T02:15:53;41.47;;;16.48;;
78718;SDS011;68046;53.334;9.538;2024-02-21T02:18:20;42.42;;;17.83;;
78718;SDS011;68046;53.334;9.538;2024-02-21T02:20:46;45.70;;;18.02;;
78718;SDS011;68046;53.334;9.538;2024-02-21T02:23:12;49.90;;;18.15;;
78718;SDS011;68046;53.334;9.538;2024-02-21T02:25:40;40.60;;;17.27;;
78718;SDS011;68046;53.334;9.538;2024-02-21T02:28:05;35.28;;;16.13;;
78718;SDS011;68046;53.334;9.538;2024-02-21T02:30:32;39.40;;;17.40;;
78718;SDS011;68046;53.334;9.538;2024-02-21T02:32:57;52.58;;;18.52;;
78718;SDS011;68046;53.334;9.538;2024-02-21T02:35:23;46.13;;;16.75;;
78718;SDS011;68046;53.334;9.538;2024-02-21T02:37:48;42.55;;;15.95;;
78718;SDS011;68046;53.334;9.538;2024-02-21T02:40:14;34.97;;;15.38;;
78718;SDS011;68046;53.334;9.538;2024-02-21T02:42:41;42.22;;;15.77;;
78718;SDS011;68046;53.334;9.538;2024-02-21T02:45:07;41.85;;;16.67;;
78718;SDS011;68046;53.334;9.538;2024-02-21T02:47:33;43.72;;;17.27;;
78718;SDS011;68046;53.334;9.538;2024-02-21T02:49:58;44.50;;;15.50;;
78718;SDS011;68046;53.334;9.538;2024-02-21T02:52:24;39.40;;;15.20;;
78718;SDS011;68046;53.334;9.538;2024-02-21T02:54:49;50.50;;;17.45;;
78718;SDS011;68046;53.334;9.538;2024-02-21T02:57:15;46.15;;;15.23;;
78718;SDS011;68046;53.334;9.538;2024-02-21T02:59:42;43.10;;;16.02;;
78718;SDS011;68046;53.334;9.538;2024-02-21T03:02:07;34.25;;;13.15;;
78718;SDS011;68046;53.334;9.538;2024-02-21T03:04:33;36.13;;;14.98;;
78718;SDS011;68046;53.334;9.538;2024-02-21T03:06:58;37.00;;;13.82;;
78718;SDS011;68046;53.334;9.538;2024-02-21T03:09:24;33.72;;;13.20;;
78718;SDS011;68046;53.334;9.538;2024-02-21T03:11:49;26.90;;;13.43;;
78718;SDS011;68046;53.334;9.538;2024-02-21T03:14:15;41.95;;;15.73;;
78718;SDS011;68046;53.334;9.538;2024-02-21T03:16:41;33.22;;;13.25;;
78718;SDS011;68046;53.334;9.538;2024-02-21T03:19:07;31.05;;;14.05;;
78718;SDS011;68046;53.334;9.538;2024-02-21T03:21:32;32.05;;;15.20;;
78718;SDS011;68046;53.334;9.538;2024-02-21T03:23:58;36.83;;;14.40;;
78718;SDS011;68046;53.334;9.538;2024-02-21T03:26:23;43.25;;;14.90;;
78718;SDS011;68046;53.334;9.538;2024-02-21T03:28:49;37.38;;;16.30;;
78718;SDS011;68046;53.334;9.538;2024-02-21T03:31:14;36.22;;;15.65;;
78718;SDS011;68046;53.334;9.538;2024-02-21T03:33:42;44.80;;;14.10;;
78718;SDS011;68046;53.334;9.538;2024-02-21T03:36:12;38.17;;;14.02;;
78718;SDS011;68046;53.334;9.538;2024-02-21T03:38:38;41.03;;;15.80;;
78718;SDS011;68046;53.334;9.538;2024-02-21T03:41:04;40.90;;;15.07;;
78718;SDS011;68046;53.334;9.538;2024-02-21T03:43:29;38.30;;;14.88;;
78718;SDS011;68046;53.334;9.538;2024-02-21T03:45:55;30.35;;;13.73;;
78718;SDS011;68046;53.334;9.538;2024-02-21T03:48:20;37.83;;;14.65;;
78718;SDS011;68046;53.334;9.538;2024-02-21T03:50:47;33.53;;;13.50;;
78718;SDS011;68046;53.334;9.538;2024-02-21T03:53:13;35.10;;;13.82;;
78718;SDS011;68046;53.334;9.538;2024-02-21T03:55:38;41.13;;;15.10;;
78718;SDS011;68046;53.334;9.538;2024-02-21T03:58:04;35.67;;;15.05;;
78718;SDS011;68046;53.334;9.538;2024-02-21T04:00:29;33.30;;;13.88;;
78718;SDS011;68046;53.334;9.538;2024-02-21T04:02:55;36.50;;;14.38;;
78718;SDS011;68046;53.334;9.538;2024-02-21T04:05:20;44.33;;;14.73;;
78718;SDS011;68046;53.334;9.538;2024-02-21T04:07:47;41.83;;;17.17;;
78718;SDS011;68046;53.334;9.538;2024-02-21T04:10:13;42.30;;;16.50;;
78718;SDS011;68046;53.334;9.538;2024-02-21T04:12:38;45.35;;;16.70;;
78718;SDS011;68046;53.334;9.538;2024-02-21T04:15:04;38.25;;;16.40;;
78718;SDS011;68046;53.334;9.538;2024-02-21T04:17:30;36.45;;;16.58;;
78718;SDS011;68046;53.334;9.538;2024-02-21T04:20:03;41.53;;;16.65;;
78718;SDS011;68046;53.334;9.538;2024-02-21T04:22:29;37.20;;;14.73;;
78718;SDS011;68046;53.334;9.538;2024-02-21T04:24:56;40.00;;;16.40;;
78718;SDS011;68046;53.334;9.538;2024-02-21T04:27:21;41.15;;;17.33;;
78718;SDS011;68046;53.334;9.538;2024-02-21T04:29:47;44.72;;;17.08;;
78718;SDS011;68046;53.334;9.538;2024-02-21T04:32:12;40.55;;;16.60;;
78718;SDS011;68046;53.334;9.538;2024-02-21T04:34:38;36.10;;;15.82;;
78718;SDS011;68046;53.334;9.538;2024-02-21T04:37:06;42.70;;;15.07;;
78718;SDS011;68046;53.334;9.538;2024-02-21T04:39:31;40.05;;;14.82;;
78718;SDS011;68046;53.334;9.538;2024-02-21T04:41:58;38.03;;;16.65;;
78718;SDS011;68046;53.334;9.538;2024-02-21T04:44:23;40.10;;;15.73;;
78718;SDS011;68046;53.334;9.538;2024-02-21T04:46:49;42.40;;;17.58;;
78718;SDS011;68046;53.334;9.538;2024-02-21T04:49:14;40.08;;;15.45;;
78718;SDS011;68046;53.334;9.538;2024-02-21T04:51:40;41.08;;;16.45;;
78718;SDS011;68046;53.334;9.538;2024-02-21T04:54:06;37.25;;;15.35;;
78718;SDS011;68046;53.334;9.538;2024-02-21T04:56:31;36.17;;;14.25;;
78718;SDS011;68046;53.334;9.538;2024-02-21T04:58:58;32.55;;;16.08;;
78718;SDS011;68046;53.334;9.538;2024-02-21T05:01:24;36.38;;;14.60;;
78718;SDS011;68046;53.334;9.538;2024-02-21T05:03:49;29.15;;;14.23;;
78718;SDS011;68046;53.334;9.538;2024-02-21T05:06:15;36.13;;;14.25;;
78718;SDS011;68046;53.334;9.538;2024-02-21T05:08:40;31.83;;;13.48;;
78718;SDS011;68046;53.334;9.538;2024-02-21T05:11:06;28.38;;;13.10;;
78718;SDS011;68046;53.334;9.538;2024-02-21T05:13:31;29.65;;;13.77;;
78718;SDS011;68046;53.334;9.538;2024-02-21T05:15:58;32.30;;;12.20;;
78718;SDS011;68046;53.334;9.538;2024-02-21T05:18:23;32.47;;;12.10;;
78718;SDS011;68046;53.334;9.538;2024-02-21T05:20:49;35.50;;;14.60;;
78718;SDS011;68046;53.334;9.538;2024-02-21T05:23:14;32.47;;;13.40;;
78718;SDS011;68046;53.334;9.538;2024-02-21T05:25:40;27.70;;;11.95;;
78718;SDS011;68046;53.334;9.538;2024-02-21T05:28:05;23.63;;;10.95;;
78718;SDS011;68046;53.334;9.538;2024-02-21T05:30:31;30.60;;;13.02;;
78718;SDS011;68046;53.334;9.538;2024-02-21T05:32:58;29.77;;;12.02;;
78718;SDS011;68046;53.334;9.538;2024-02-21T05:35:26;23.83;;;10.38;;
78718;SDS011;68046;53.334;9.538;2024-02-21T05:37:52;23.52;;;10.00;;
78718;SDS011;68046;53.334;9.538;2024-02-21T05:40:17;28.55;;;10.80;;
78718;SDS011;68046;53.334;9.538;2024-02-21T05:42:43;29.50;;;11.93;;
78718;SDS011;68046;53.334;9.538;2024-02-21T05:45:09;25.70;;;11.13;;
78718;SDS011;68046;53.334;9.538;2024-02-21T05:47:34;28.08;;;11.38;;
78718;SDS011;68046;53.334;9.538;2024-02-21T05:50:01;24.23;;;12.25;;
78718;SDS011;68046;53.334;9.538;2024-02-21T05:52:27;24.95;;;10.52;;
78718;SDS011;68046;53.334;9.538;2024-02-21T05:54:52;23.50;;;10.50;;
78718;SDS011;68046;53.334;9.538;2024-02-21T05:57:18;23.75;;;11.07;;
78718;SDS011;68046;53.334;9.538;2024-02-21T05:59:43;24.90;;;10.98;;
78718;SDS011;68046;53.334;9.538;2024-02-21T06:02:09;26.35;;;11.63;;
78718;SDS011;68046;53.334;9.538;2024-02-21T06:04:34;23.48;;;11.20;;
78718;SDS011;68046;53.334;9.538;2024-02-21T06:07:01;24.35;;;11.07;;
78718;SDS011;68046;53.334;9.538;2024-02-21T06:09:27;23.35;;;11.15;;
78718;SDS011;68046;53.334;9.538;2024-02-21T06:11:53;30.83;;;11.43;;
78718;SDS011;68046;53.334;9.538;2024-02-21T06:14:19;28.33;;;12.38;;
78718;SDS011;68046;53.334;9.538;2024-02-21T06:16:44;28.70;;;13.20;;
78718;SDS011;68046;53.334;9.538;2024-02-21T06:19:10;24.85;;;11.57;;
78718;SDS011;68046;53.334;9.538;2024-02-21T06:21:35;26.98;;;11.43;;
78718;SDS011;68046;53.334;9.538;2024-02-21T06:24:02;26.60;;;11.68;;
78718;SDS011;68046;53.334;9.538;2024-02-21T06:26:28;19.08;;;10.13;;
78718;SDS011;68046;53.334;9.538;2024-02-21T06:28:54;23.50;;;10.07;;
78718;SDS011;68046;53.334;9.538;2024-02-21T06:31:19;23.73;;;10.90;;
78718;SDS011;68046;53.334;9.538;2024-02-21T06:33:45;24.65;;;11.25;;
78718;SDS011;68046;53.334;9.538;2024-02-21T06:36:10;22.98;;;10.50;;
78718;SDS011;68046;53.334;9.538;2024-02-21T06:38:36;21.85;;;10.77;;
78718;SDS011;68046;53.334;9.538;2024-02-21T06:41:03;22.15;;;10.93;;
78718;SDS011;68046;53.334;9.538;2024-02-21T06:43:28;18.98;;;10.45;;
78718;SDS011;68046;53.334;9.538;2024-02-21T06:45:54;17.60;;;9.35;;
78718;SDS011;68046;53.334;9.538;2024-02-21T06:48:19;18.25;;;9.65;;
78718;SDS011;68046;53.334;9.538;2024-02-21T06:50:45;15.90;;;8.65;;
78718;SDS011;68046;53.334;9.538;2024-02-21T06:53:10;17.83;;;7.85;;
78718;SDS011;68046;53.334;9.538;2024-02-21T06:55:36;15.40;;;8.20;;
78718;SDS011;68046;53.334;9.538;2024-02-21T06:58:03;15.80;;;9.30;;
78718;SDS011;68046;53.334;9.538;2024-02-21T07:00:28;20.23;;;8.57;;
78718;SDS011;68046;53.334;9.538;2024-02-21T07:02:54;16.73;;;8.25;;
78718;SDS011;68046;53.334;9.538;2024-02-21T07:05:20;19.00;;;8.80;;
78718;SDS011;68046;53.334;9.538;2024-02-21T07:07:45;17.55;;;7.68;;
78718;SDS011;68046;53.334;9.538;2024-02-21T07:10:11;15.90;;;8.30;;
78718;SDS011;68046;53.334;9.538;2024-02-21T07:12:36;16.30;;;7.72;;
78718;SDS011;68046;53.334;9.538;2024-02-21T07:15:04;15.23;;;6.80;;
78718;SDS011;68046;53.334;9.538;2024-02-21T07:17:29;18.13;;;7.55;;
78718;SDS011;68046;53.334;9.538;2024-02-21T07:19:55;14.98;;;7.20;;
78718;SDS011;68046;53.334;9.538;2024-02-21T07:22:20;15.20;;;7.45;;
78718;SDS011;68046;53.334;9.538;2024-02-21T07:24:46;13.93;;;7.38;;
78718;SDS011;68046;53.334;9.538;2024-02-21T07:27:13;15.40;;;7.13;;
78718;SDS011;68046;53.334;9.538;2024-02-21T07:29:40;14.82;;;6.80;;
78718;SDS011;68046;53.334;9.538;2024-02-21T07:32:07;13.77;;;7.50;;
78718;SDS011;68046;53.334;9.538;2024-02-21T07:34:32;15.25;;;7.75;;
78718;SDS011;68046;53.334;9.538;2024-02-21T07:36:57;16.67;;;7.72;;
78718;SDS011;68046;53.334;9.538;2024-02-21T07:39:23;13.15;;;6.55;;
78718;SDS011;68046;53.334;9.538;2024-02-21T07:41:48;15.10;;;7.00;;
78718;SDS011;68046;53.334;9.538;2024-02-21T07:44:14;17.05;;;7.63;;
78718;SDS011;68046;53.334;9.538;2024-02-21T07:46:40;18.33;;;8.65;;
78718;SDS011;68046;53.334;9.538;2024-02-21T07:49:06;17.48;;;7.45;;
78718;SDS011;68046;53.334;9.538;2024-02-21T07:51:32;16.90;;;7.93;;
78718;SDS011;68046;53.334;9.538;2024-02-21T07:53:57;13.57;;;7.72;;
78718;SDS011;68046;53.334;9.538;2024-02-21T07:56:23;16.33;;;8.20;;
78718;SDS011;68046;53.334;9.538;2024-02-21T07:58:48;13.27;;;7.28;;
78718;SDS011;68046;53.334;9.538;2024-02-21T08:01:17;18.17;;;8.50;;
78718;SDS011;68046;53.334;9.538;2024-02-21T08:03:43;14.85;;;7.88;;
78718;SDS011;68046;53.334;9.538;2024-02-21T08:06:11;17.95;;;8.25;;
78718;SDS011;68046;53.334;9.538;2024-02-21T08:08:37;14.95;;;6.15;;
78718;SDS011;68046;53.334;9.538;2024-02-21T08:11:02;13.15;;;7.22;;
78718;SDS011;68046;53.334;9.538;2024-02-21T08:13:28;14.93;;;6.95;;
78718;SDS011;68046;53.334;9.538;2024-02-21T08:15:54;12.05;;;6.70;;
78718;SDS011;68046;53.334;9.538;2024-02-21T08:18:19;16.27;;;7.45;;
78718;SDS011;68046;53.334;9.538;2024-02-21T08:20:45;13.32;;;6.78;;
78718;SDS011;68046;53.334;9.538;2024-02-21T08:23:11;16.30;;;7.38;;
78718;SDS011;68046;53.334;9.538;2024-02-21T08:25:37;14.55;;;7.15;;
78718;SDS011;68046;53.334;9.538;2024-02-21T08:28:03;15.95;;;6.78;;
78718;SDS011;68046;53.334;9.538;2024-02-21T08:30:30;13.63;;;7.32;;
78718;SDS011;68046;53.334;9.538;2024-02-21T08:32:55;18.33;;;8.27;;
78718;SDS011;68046;53.334;9.538;2024-02-21T08:35:21;16.55;;;7.70;;
78718;SDS011;68046;53.334;9.538;2024-02-21T08:37:46;15.38;;;8.25;;
78718;SDS011;68046;53.334;9.538;2024-02-21T08:40:13;18.08;;;8.18;;
78718;SDS011;68046;53.334;9.538;2024-02-21T08:42:39;15.40;;;7.00;;
78718;SDS011;68046;53.334;9.538;2024-02-21T08:45:05;14.25;;;7.63;;
78718;SDS011;68046;53.334;9.538;2024-02-21T08:47:31;16.30;;;8.27;;
78718;SDS011;68046;53.334;9.538;2024-02-21T08:49:56;16.52;;;8.00;;
78718;SDS011;68046;53.334;9.538;2024-02-21T08:52:22;19.05;;;7.95;;
78718;SDS011;68046;53.334;9.538;2024-02-21T08:54:47;17.08;;;8.27;;
78718;SDS011;68046;53.334;9.538;2024-02-21T08:57:14;19.08;;;8.60;;
78718;SDS011;68046;53.334;9.538;2024-02-21T08:59:40;17.58;;;8.07;;
78718;SDS011;68046;53.334;9.538;2024-02-21T09:02:05;20.80;;;9.48;;
78718;SDS011;68046;53.334;9.538;2024-02-21T09:04:31;19.17;;;9.23;;
78718;SDS011;68046;53.334;9.538;2024-02-21T09:06:56;21.80;;;11.32;;
78718;SDS011;68046;53.334;9.538;2024-02-21T09:09:22;24.42;;;11.00;;
78718;SDS011;68046;53.334;9.538;2024-02-21T09:11:47;25.17;;;11.38;;
78718;SDS011;68046;53.334;9.538;2024-02-21T09:14:14;19.80;;;9.90;;
78718;SDS011;68046;53.334;9.538;2024-02-21T09:16:39;24.25;;;10.88;;
78718;SDS011;68046;53.334;9.538;2024-02-21T09:19:05;22.95;;;10.93;;
78718;SDS011;68046;53.334;9.538;2024-02-21T09:21:30;23.23;;;11.77;;
78718;SDS011;68046;53.334;9.538;2024-02-21T09:23:56;30.70;;;12.52;;
78718;SDS011;68046;53.334;9.538;2024-02-21T09:26:21;32.75;;;11.90;;
78718;SDS011;68046;53.334;9.538;2024-02-21T09:28:47;27.67;;;13.02;;
78718;SDS011;68046;53.334;9.538;2024-02-21T09:31:14;31.48;;;13.68;;
78718;SDS011;68046;53.334;9.538;2024-02-21T09:33:39;29.27;;;12.38;;
78718;SDS011;68046;53.334;9.538;2024-02-21T09:36:05;32.67;;;14.63;;
78718;SDS011;68046;53.334;9.538;2024-02-21T09:38:31;36.17;;;13.70;;
78718;SDS011;68046;53.334;9.538;2024-02-21T09:40:58;32.30;;;13.23;;
78718;SDS011;68046;53.334;9.538;2024-02-21T09:43:24;27.98;;;13.10;;
78718;SDS011;68046;53.334;9.538;2024-02-21T09:45:51;33.85;;;13.88;;
78718;SDS011;68046;53.334;9.538;2024-02-21T09:48:25;37.92;;;14.52;;
78718;SDS011;68046;53.334;9.538;2024-02-21T09:50:58;40.00;;;13.82;;
78718;SDS011;68046;53.334;9.538;2024-02-21T09:53:24;47.50;;;15.13;;
78718;SDS011;68046;53.334;9.538;2024-02-21T09:55:50;29.55;;;12.55;;
78718;SDS011;68046;53.334;9.538;2024-02-21T09:58:16;31.88;;;11.90;;
78718;SDS011;68046;53.334;9.538;2024-02-21T10:00:41;31.23;;;12.18;;
78718;SDS011;68046;53.334;9.538;2024-02-21T10:03:07;40.55;;;12.82;;
78718;SDS011;68046;53.334;9.538;2024-02-21T10:05:34;29.35;;;12.20;;
78718;SDS011;68046;53.334;9.538;2024-02-21T10:07:59;33.28;;;11.65;;
78718;SDS011;68046;53.334;9.538;2024-02-21T10:10:25;25.10;;;11.80;;
78718;SDS011;68046;53.334;9.538;2024-02-21T10:12:51;30.35;;;11.57;;
78718;SDS011;68046;53.334;9.538;2024-02-21T10:15:19;25.25;;;11.65;;
78718;SDS011;68046;53.334;9.538;2024-02-21T10:17:46;25.55;;;11.55;;
78718;SDS011;68046;53.334;9.538;2024-02-21T10:20:12;28.10;;;10.77;;
78718;SDS011;68046;53.334;9.538;2024-02-21T10:22:39;39.05;;;11.65;;
78718;SDS011;68046;53.334;9.538;2024-02-21T10:25:07;28.77;;;11.25;;
78718;SDS011;68046;53.334;9.538;2024-02-21T10:27:33;28.85;;;11.02;;
78718;SDS011;68046;53.334;9.538;2024-02-21T10:29:58;25.65;;;11.55;;
78718;SDS011;68046;53.334;9.538;2024-02-21T10:32:24;23.58;;;10.27;;
78718;SDS011;68046;53.334;9.538;2024-02-21T10:34:49;24.52;;;9.45;;
78718;SDS011;68046;53.334;9.538;2024-02-21T10:37:25;26.10;;;9.70;;
78718;SDS011;68046;53.334;9.538;2024-02-21T10:39:53;25.52;;;11.00;;
78718;SDS011;68046;53.334;9.538;2024-02-21T10:42:18;29.02;;;10.23;;
78718;SDS011;68046;53.334;9.538;2024-02-21T10:44:46;25.67;;;10.13;;
78718;SDS011;68046;53.334;9.538;2024-02-21T10:47:16;22.67;;;9.85;;
78718;SDS011;68046;53.334;9.538;2024-02-21T10:49:42;23.38;;;10.90;;
78718;SDS011;68046;53.334;9.538;2024-02-21T10:52:17;24.42;;;9.00;;
78718;SDS011;68046;53.334;9.538;2024-02-21T10:54:53;26.75;;;10.00;;
78718;SDS011;68046;53.334;9.538;2024-02-21T10:57:21;25.70;;;11.13;;
78718;SDS011;68046;53.334;9.538;2024-02-21T10:59:47;28.23;;;9.20;;
78718;SDS011;68046;53.334;9.538;2024-02-21T11:02:13;18.90;;;9.57;;
78718;SDS011;68046;53.334;9.538;2024-02-21T11:04:39;20.75;;;9.90;;
78718;SDS011;68046;53.334;9.538;2024-02-21T11:07:05;25.33;;;10.65;;
78718;SDS011;68046;53.334;9.538;2024-02-21T11:09:32;26.33;;;11.18;;
78718;SDS011;68046;53.334;9.538;2024-02-21T11:12:01;25.30;;;10.55;;
78718;SDS011;68046;53.334;9.538;2024-02-21T11:14:28;22.92;;;10.48;;
78718;SDS011;68046;53.334;9.538;2024-02-21T11:16:54;19.40;;;10.35;;
78718;SDS011;68046;53.334;9.538;2024-02-21T11:19:19;31.25;;;10.43;;
78718;SDS011;68046;53.334;9.538;2024-02-21T11:21:46;23.20;;;10.63;;
78718;SDS011;68046;53.334;9.538;2024-02-21T11:24:12;29.70;;;11.05;;
78718;SDS011;68046;53.334;9.538;2024-02-21T11:26:37;28.45;;;11.15;;
78718;SDS011;68046;53.334;9.538;2024-02-21T11:29:04;26.85;;;11.07;;
78718;SDS011;68046;53.334;9.538;2024-02-21T11:31:38;26.35;;;11.25;;
78718;SDS011;68046;53.334;9.538;2024-02-21T11:34:04;28.98;;;10.43;;
78718;SDS011;68046;53.334;9.538;2024-02-21T11:36:29;25.98;;;11.02;;
78718;SDS011;68046;53.334;9.538;2024-02-21T11:38:55;24.27;;;10.50;;
78718;SDS011;68046;53.334;9.538;2024-02-21T11:41:28;30.40;;;11.10;;
78718;SDS011;68046;53.334;9.538;2024-02-21T11:43:54;30.05;;;12.35;;
78718;SDS011;68046;53.334;9.538;2024-02-21T11:46:21;25.00;;;11.68;;
78718;SDS011;68046;53.334;9.538;2024-02-21T11:48:46;22.55;;;11.05;;
78718;SDS011;68046;53.334;9.538;2024-02-21T11:51:12;26.10;;;11.45;;
78718;SDS011;68046;53.334;9.538;2024-02-21T11:53:46;27.85;;;11.13;;
78718;SDS011;68046;53.334;9.538;2024-02-21T11:56:13;23.42;;;11.23;;
78718;SDS011;68046;53.334;9.538;2024-02-21T11:58:39;29.02;;;11.02;;
78718;SDS011;68046;53.334;9.538;2024-02-21T12:01:04;26.48;;;9.93;;
78718;SDS011;68046;53.334;9.538;2024-02-21T12:03:31;19.27;;;9.45;;
78718;SDS011;68046;53.334;9.538;2024-02-21T12:05:57;25.77;;;12.15;;
78718;SDS011;68046;53.334;9.538;2024-02-21T12:08:22;17.77;;;9.30;;
78718;SDS011;68046;53.334;9.538;2024-02-21T12:10:48;24.80;;;10.60;;
78718;SDS011;68046;53.334;9.538;2024-02-21T12:13:14;27.00;;;10.73;;
78718;SDS011;68046;53.334;9.538;2024-02-21T12:15:39;24.73;;;11.15;;
78718;SDS011;68046;53.334;9.538;2024-02-21T12:18:05;21.65;;;11.10;;
78718;SDS011;68046;53.334;9.538;2024-02-21T12:20:31;26.15;;;9.35;;
78718;SDS011;68046;53.334;9.538;2024-02-21T12:22:59;23.52;;;10.70;;
78718;SDS011;68046;53.334;9.538;2024-02-21T12:25:25;19.77;;;9.57;;
78718;SDS011;68046;53.334;9.538;2024-02-21T12:27:50;20.38;;;9.40;;
78718;SDS011;68046;53.334;9.538;2024-02-21T12:30:16;20.88;;;9.20;;
78718;SDS011;68046;53.334;9.538;2024-02-21T12:32:42;21.48;;;9.45;;
78718;SDS011;68046;53.334;9.538;2024-02-21T12:35:08;24.13;;;9.77;;
78718;SDS011;68046;53.334;9.538;2024-02-21T12:37:35;23.65;;;9.43;;
78718;SDS011;68046;53.334;9.538;2024-02-21T12:40:00;22.00;;;8.68;;
78718;SDS011;68046;53.334;9.538;2024-02-21T12:42:26;17.70;;;8.95;;
78718;SDS011;68046;53.334;9.538;2024-02-21T12:44:52;17.98;;;8.48;;
78718;SDS011;68046;53.334;9.538;2024-02-21T12:47:17;15.48;;;7.90;;
78718;SDS011;68046;53.334;9.538;2024-02-21T12:49:43;15.52;;;8.43;;
78718;SDS011;68046;53.334;9.538;2024-02-21T12:52:08;19.98;;;7.53;;
78718;SDS011;68046;53.334;9.538;2024-02-21T12:54:35;22.60;;;8.15;;
78718;SDS011;68046;53.334;9.538;2024-02-21T12:57:01;19.27;;;8.70;;
78718;SDS011;68046;53.334;9.538;2024-02-21T12:59:26;23.33;;;8.70;;
78718;SDS011;68046;53.334;9.538;2024-02-21T13:01:52;18.85;;;7.72;;
78718;SDS011;68046;53.334;9.538;2024-02-21T13:04:17;19.55;;;8.02;;
78718;SDS011;68046;53.334;9.538;2024-02-21T13:06:43;17.58;;;8.10;;
78718;SDS011;68046;53.334;9.538;2024-02-21T13:09:08;20.67;;;8.13;;
78718;SDS011;68046;53.334;9.538;2024-02-21T13:11:35;15.75;;;7.13;;
78718;SDS011;68046;53.334;9.538;2024-02-21T13:14:01;18.08;;;8.82;;
78718;SDS011;68046;53.334;9.538;2024-02-21T13:16:27;17.08;;;7.72;;
78718;SDS011;68046;53.334;9.538;2024-02-21T13:18:52;15.88;;;9.38;;
78718;SDS011;68046;53.334;9.538;2024-02-21T13:21:17;18.77;;;7.88;;
78718;SDS011;68046;53.334;9.538;2024-02-21T13:23:43;19.42;;;7.07;;
78718;SDS011;68046;53.334;9.538;2024-02-21T13:26:09;14.95;;;7.68;;
78718;SDS011;68046;53.334;9.538;2024-02-21T13:28:35;19.42;;;7.25;;
78718;SDS011;68046;53.334;9.538;2024-02-21T13:31:01;20.08;;;7.25;;
78718;SDS011;68046;53.334;9.538;2024-02-21T13:33:27;21.70;;;7.53;;
78718;SDS011;68046;53.334;9.538;2024-02-21T13:35:52;19.55;;;6.80;;
78718;SDS011;68046;53.334;9.538;2024-02-21T13:38:18;8.90;;;6.30;;
78718;SDS011;68046;53.334;9.538;2024-02-21T13:40:43;14.35;;;6.95;;
78718;SDS011;68046;53.334;9.538;2024-02-21T13:43:09;15.57;;;6.03;;
78718;SDS011;68046;53.334;9.538;2024-02-21T13:45:36;15.00;;;6.97;;
78718;SDS011;68046;53.334;9.538;2024-02-21T13:48:01;11.95;;;7.32;;
78718;SDS011;68046;53.334;9.538;2024-02-21T13:50:29;14.52;;;7.20;;
78718;SDS011;68046;53.334;9.538;2024-02-21T13:52:55;17.33;;;8.68;;
78718;SDS011;68046;53.334;9.538;2024-02-21T13:55:21;15.23;;;6.70;;
78718;SDS011;68046;53.334;9.538;2024-02-21T13:57:46;10.85;;;6.07;;
78718;SDS011;68046;53.334;9.538;2024-02-21T14:00:12;12.95;;;6.68;;
78718;SDS011;68046;53.334;9.538;2024-02-21T14:02:40;14.18;;;6.97;;
78718;SDS011;68046;53.334;9.538;2024-02-21T14:05:05;17.33;;;7.90;;
78718;SDS011;68046;53.334;9.538;2024-02-21T14:07:31;10.57;;;5.43;;
78718;SDS011;68046;53.334;9.538;2024-02-21T14:09:57;11.93;;;5.95;;
78718;SDS011;68046;53.334;9.538;2024-02-21T14:12:22;13.90;;;6.25;;
78718;SDS011;68046;53.334;9.538;2024-02-21T14:14:48;11.82;;;5.90;;
78718;SDS011;68046;53.334;9.538;2024-02-21T14:17:13;14.45;;;5.55;;
78718;SDS011;68046;53.334;9.538;2024-02-21T14:19:40;10.23;;;4.82;;